sensor_id;sensor_type;location;lat;lon;timestamp;temperature;humidity
22469;DHT22;11401;50.792;4.352;2023-04-01T00:00:00;17.90;60.50
22469;DHT22;11401;50.792;4.352;2023-04-01T00:02:27;17.80;59.60
22469;DHT22;11401;50.792;4.352;2023-04-01T00:04:54;17.90;59.40
22469;DHT22;11401;50.792;4.352;2023-04-01T00:07:21;18.00;59.80
22469;DHT22;11401;50.792;4.352;2023-04-01T00:09:48;17.90;58.70
22469;DHT22;11401;50.792;4.352;2023-04-01T00:12:15;18.00;59.50
22469;DHT22;11401;50.792;4.352;2023-04-01T00:14:42;17.90;59.20
22469;DHT22;11401;50.792;4.352;2023-04-01T00:17:09;17.90;59.10
22469;DHT22;11401;50.792;4.352;2023-04-01T00:19:36;17.90;59.80
22469;DHT22;11401;50.792;4.352;2023-04-01T00:22:03;17.90;59.50
22469;DHT22;11401;50.792;4.352;2023-04-01T00:24:30;17.90;59.50
22469;DHT22;11401;50.792;4.352;2023-04-01T00:26:58;17.90;59.60
22469;DHT22;11401;50.792;4.352;2023-04-01T00:29:25;17.90;59.00
22469;DHT22;11401;50.792;4.352;2023-04-01T00:31:56;17.80;59.20
22469;DHT22;11401;50.792;4.352;2023-04-01T00:34:24;17.80;59.40
22469;DHT22;11401;50.792;4.352;2023-04-01T00:36:51;17.80;59.30
22469;DHT22;11401;50.792;4.352;2023-04-01T00:39:20;17.90;59.30
22469;DHT22;11401;50.792;4.352;2023-04-01T00:41:47;17.90;58.90
22469;DHT22;11401;50.792;4.352;2023-04-01T00:44:18;17.80;59.20
22469;DHT22;11401;50.792;4.352;2023-04-01T00:46:45;17.80;59.40
22469;DHT22;11401;50.792;4.352;2023-04-01T00:49:14;17.80;59.60
22469;DHT22;11401;50.792;4.352;2023-04-01T00:51:45;17.70;59.30
22469;DHT22;11401;50.792;4.352;2023-04-01T00:54:16;17.60;59.50
22469;DHT22;11401;50.792;4.352;2023-04-01T00:57:22;17.60;59.80
22469;DHT22;11401;50.792;4.352;2023-04-01T00:59:52;17.60;59.70
22469;DHT22;11401;50.792;4.352;2023-04-01T01:02:21;17.60;60.00
22469;DHT22;11401;50.792;4.352;2023-04-01T01:04:48;17.50;60.00
22469;DHT22;11401;50.792;4.352;2023-04-01T01:07:26;17.40;60.30
22469;DHT22;11401;50.792;4.352;2023-04-01T01:10:13;17.40;61.00
22469;DHT22;11401;50.792;4.352;2023-04-01T01:15:44;17.30;61.10
22469;DHT22;11401;50.792;4.352;2023-04-01T01:18:18;17.40;61.60
22469;DHT22;11401;50.792;4.352;2023-04-01T01:26:37;17.40;61.20
22469;DHT22;11401;50.792;4.352;2023-04-01T01:37:55;17.40;61.00
22469;DHT22;11401;50.792;4.352;2023-04-01T01:40:24;17.30;60.90
22469;DHT22;11401;50.792;4.352;2023-04-01T01:42:56;17.40;61.60
22469;DHT22;11401;50.792;4.352;2023-04-01T01:45:26;17.40;61.30
22469;DHT22;11401;50.792;4.352;2023-04-01T01:47:55;17.40;60.80
22469;DHT22;11401;50.792;4.352;2023-04-01T01:50:23;17.40;60.50
22469;DHT22;11401;50.792;4.352;2023-04-01T01:52:51;17.30;61.10
22469;DHT22;11401;50.792;4.352;2023-04-01T01:55:45;17.40;60.90
22469;DHT22;11401;50.792;4.352;2023-04-01T02:01:00;17.00;60.90
22469;DHT22;11401;50.792;4.352;2023-04-01T02:03:33;17.10;61.90
22469;DHT22;11401;50.792;4.352;2023-04-01T02:06:04;17.20;62.60
22469;DHT22;11401;50.792;4.352;2023-04-01T02:08:42;17.20;61.10
22469;DHT22;11401;50.792;4.352;2023-04-01T02:11:13;17.20;61.20
22469;DHT22;11401;50.792;4.352;2023-04-01T02:13:59;17.20;60.90
22469;DHT22;11401;50.792;4.352;2023-04-01T02:16:53;17.10;61.20
22469;DHT22;11401;50.792;4.352;2023-04-01T02:19:26;17.20;61.60
22469;DHT22;11401;50.792;4.352;2023-04-01T02:21:57;17.30;61.60
22469;DHT22;11401;50.792;4.352;2023-04-01T02:24:28;17.30;61.30
22469;DHT22;11401;50.792;4.352;2023-04-01T02:26:56;17.40;60.80
22469;DHT22;11401;50.792;4.352;2023-04-01T02:29:25;17.20;60.70
22469;DHT22;11401;50.792;4.352;2023-04-01T02:31:53;17.00;60.90
22469;DHT22;11401;50.792;4.352;2023-04-01T02:34:23;17.00;61.70
22469;DHT22;11401;50.792;4.352;2023-04-01T02:36:51;16.90;61.50
22469;DHT22;11401;50.792;4.352;2023-04-01T02:39:18;16.80;61.90
22469;DHT22;11401;50.792;4.352;2023-04-01T02:41:46;16.90;61.90
22469;DHT22;11401;50.792;4.352;2023-04-01T02:44:15;16.90;62.00
22469;DHT22;11401;50.792;4.352;2023-04-01T02:46:43;16.90;62.00
22469;DHT22;11401;50.792;4.352;2023-04-01T02:49:10;16.90;61.90
22469;DHT22;11401;50.792;4.352;2023-04-01T02:51:37;16.80;62.00
22469;DHT22;11401;50.792;4.352;2023-04-01T02:54:04;16.80;61.90
22469;DHT22;11401;50.792;4.352;2023-04-01T02:56:32;16.80;62.10
22469;DHT22;11401;50.792;4.352;2023-04-01T02:58:59;16.80;61.90
22469;DHT22;11401;50.792;4.352;2023-04-01T03:01:26;16.80;62.50
22469;DHT22;11401;50.792;4.352;2023-04-01T03:03:53;16.90;62.60
22469;DHT22;11401;50.792;4.352;2023-04-01T03:06:20;16.90;61.70
22469;DHT22;11401;50.792;4.352;2023-04-01T03:08:47;16.70;62.00
22469;DHT22;11401;50.792;4.352;2023-04-01T03:11:14;16.70;62.90
22469;DHT22;11401;50.792;4.352;2023-04-01T03:13:41;16.80;62.90
22469;DHT22;11401;50.792;4.352;2023-04-01T03:16:09;16.80;62.20
22469;DHT22;11401;50.792;4.352;2023-04-01T03:18:36;16.80;62.80
22469;DHT22;11401;50.792;4.352;2023-04-01T03:21:23;16.90;62.40
22469;DHT22;11401;50.792;4.352;2023-04-01T03:23:51;17.00;62.70
22469;DHT22;11401;50.792;4.352;2023-04-01T03:26:19;16.90;62.40
22469;DHT22;11401;50.792;4.352;2023-04-01T03:28:46;16.90;62.40
22469;DHT22;11401;50.792;4.352;2023-04-01T03:31:13;16.80;62.00
22469;DHT22;11401;50.792;4.352;2023-04-01T03:33:49;16.70;62.30
22469;DHT22;11401;50.792;4.352;2023-04-01T03:36:16;16.80;63.00
22469;DHT22;11401;50.792;4.352;2023-04-01T03:38:44;16.90;62.90
22469;DHT22;11401;50.792;4.352;2023-04-01T03:41:17;17.00;62.40
22469;DHT22;11401;50.792;4.352;2023-04-01T03:43:45;17.10;62.10
22469;DHT22;11401;50.792;4.352;2023-04-01T03:46:17;17.10;61.30
22469;DHT22;11401;50.792;4.352;2023-04-01T03:48:45;17.00;61.40
22469;DHT22;11401;50.792;4.352;2023-04-01T03:51:12;17.00;62.00
22469;DHT22;11401;50.792;4.352;2023-04-01T03:53:39;17.00;61.70
22469;DHT22;11401;50.792;4.352;2023-04-01T03:56:07;17.00;61.70
22469;DHT22;11401;50.792;4.352;2023-04-01T03:58:36;17.00;61.50
22469;DHT22;11401;50.792;4.352;2023-04-01T04:01:14;16.90;61.50
22469;DHT22;11401;50.792;4.352;2023-04-01T04:03:41;16.90;61.50
22469;DHT22;11401;50.792;4.352;2023-04-01T04:06:12;16.80;61.50
22469;DHT22;11401;50.792;4.352;2023-04-01T04:08:39;16.70;62.20
22469;DHT22;11401;50.792;4.352;2023-04-01T04:11:07;16.80;62.30
22469;DHT22;11401;50.792;4.352;2023-04-01T04:13:37;16.80;62.20
22469;DHT22;11401;50.792;4.352;2023-04-01T04:16:04;16.80;61.90
22469;DHT22;11401;50.792;4.352;2023-04-01T04:18:33;16.90;62.40
22469;DHT22;11401;50.792;4.352;2023-04-01T04:21:00;16.90;62.30
22469;DHT22;11401;50.792;4.352;2023-04-01T04:23:27;16.80;61.50
22469;DHT22;11401;50.792;4.352;2023-04-01T04:26:05;16.80;62.20
22469;DHT22;11401;50.792;4.352;2023-04-01T04:28:32;16.70;62.20
22469;DHT22;11401;50.792;4.352;2023-04-01T04:30:59;16.80;62.90
22469;DHT22;11401;50.792;4.352;2023-04-01T04:33:27;16.80;62.20
22469;DHT22;11401;50.792;4.352;2023-04-01T04:35:56;16.80;62.40
22469;DHT22;11401;50.792;4.352;2023-04-01T04:38:24;16.70;62.20
22469;DHT22;11401;50.792;4.352;2023-04-01T04:40:53;16.80;62.70
22469;DHT22;11401;50.792;4.352;2023-04-01T04:43:20;16.70;63.00
22469;DHT22;11401;50.792;4.352;2023-04-01T04:45:47;16.90;62.80
22469;DHT22;11401;50.792;4.352;2023-04-01T04:48:16;16.90;62.50
22469;DHT22;11401;50.792;4.352;2023-04-01T04:50:46;16.90;62.20
22469;DHT22;11401;50.792;4.352;2023-04-01T04:53:15;16.80;61.80
22469;DHT22;11401;50.792;4.352;2023-04-01T04:55:44;16.80;62.40
22469;DHT22;11401;50.792;4.352;2023-04-01T04:58:32;16.90;62.50
22469;DHT22;11401;50.792;4.352;2023-04-01T05:01:13;16.80;61.70
22469;DHT22;11401;50.792;4.352;2023-04-01T05:03:42;16.70;61.00
22469;DHT22;11401;50.792;4.352;2023-04-01T05:06:12;16.60;62.30
22469;DHT22;11401;50.792;4.352;2023-04-01T05:08:40;16.60;62.80
22469;DHT22;11401;50.792;4.352;2023-04-01T05:11:17;16.50;63.00
22469;DHT22;11401;50.792;4.352;2023-04-01T05:13:45;16.60;62.90
22469;DHT22;11401;50.792;4.352;2023-04-01T05:16:17;16.60;63.00
22469;DHT22;11401;50.792;4.352;2023-04-01T05:18:45;16.50;62.30
22469;DHT22;11401;50.792;4.352;2023-04-01T05:21:14;16.50;63.50
22469;DHT22;11401;50.792;4.352;2023-04-01T05:23:42;16.60;63.70
22469;DHT22;11401;50.792;4.352;2023-04-01T05:26:12;16.60;63.10
22469;DHT22;11401;50.792;4.352;2023-04-01T05:28:40;16.50;62.20
22469;DHT22;11401;50.792;4.352;2023-04-01T05:31:07;16.50;63.10
22469;DHT22;11401;50.792;4.352;2023-04-01T05:33:37;16.50;62.90
22469;DHT22;11401;50.792;4.352;2023-04-01T05:36:10;16.40;63.50
22469;DHT22;11401;50.792;4.352;2023-04-01T05:38:39;16.40;63.10
22469;DHT22;11401;50.792;4.352;2023-04-01T05:41:09;16.40;63.60
22469;DHT22;11401;50.792;4.352;2023-04-01T05:43:41;16.40;63.60
22469;DHT22;11401;50.792;4.352;2023-04-01T05:46:32;16.30;63.80
22469;DHT22;11401;50.792;4.352;2023-04-01T05:49:08;16.30;63.00
22469;DHT22;11401;50.792;4.352;2023-04-01T05:51:35;16.30;63.50
22469;DHT22;11401;50.792;4.352;2023-04-01T05:54:06;16.20;63.60
22469;DHT22;11401;50.792;4.352;2023-04-01T05:56:33;16.20;63.90
22469;DHT22;11401;50.792;4.352;2023-04-01T05:59:01;16.20;63.80
22469;DHT22;11401;50.792;4.352;2023-04-01T06:01:28;16.10;63.60
22469;DHT22;11401;50.792;4.352;2023-04-01T06:03:55;16.20;63.90
22469;DHT22;11401;50.792;4.352;2023-04-01T06:06:30;16.30;63.70
22469;DHT22;11401;50.792;4.352;2023-04-01T06:09:14;16.40;63.70
22469;DHT22;11401;50.792;4.352;2023-04-01T06:14:27;16.50;62.70
22469;DHT22;11401;50.792;4.352;2023-04-01T06:23:09;16.30;63.10
22469;DHT22;11401;50.792;4.352;2023-04-01T06:26:12;16.30;63.40
22469;DHT22;11401;50.792;4.352;2023-04-01T06:45:53;16.30;63.90
22469;DHT22;11401;50.792;4.352;2023-04-01T06:48:57;16.40;63.40
22469;DHT22;11401;50.792;4.352;2023-04-01T06:58:23;16.30;62.60
22469;DHT22;11401;50.792;4.352;2023-04-01T07:01:02;16.30;63.00
22469;DHT22;11401;50.792;4.352;2023-04-01T07:03:36;16.20;63.30
22469;DHT22;11401;50.792;4.352;2023-04-01T07:06:24;16.30;64.20
22469;DHT22;11401;50.792;4.352;2023-04-01T07:09:02;16.40;62.80
22469;DHT22;11401;50.792;4.352;2023-04-01T07:11:53;16.40;63.90
22469;DHT22;11401;50.792;4.352;2023-04-01T07:14:43;16.60;63.30
22469;DHT22;11401;50.792;4.352;2023-04-01T07:17:15;16.60;62.70
22469;DHT22;11401;50.792;4.352;2023-04-01T07:22:39;16.60;63.30
22469;DHT22;11401;50.792;4.352;2023-04-01T07:25:23;16.60;62.80
22469;DHT22;11401;50.792;4.352;2023-04-01T07:28:17;16.60;63.00
22469;DHT22;11401;50.792;4.352;2023-04-01T07:33:52;16.50;62.60
22469;DHT22;11401;50.792;4.352;2023-04-01T07:39:11;16.40;63.50
22469;DHT22;11401;50.792;4.352;2023-04-01T07:45:15;16.40;62.90
22469;DHT22;11401;50.792;4.352;2023-04-01T07:51:00;16.30;64.10
22469;DHT22;11401;50.792;4.352;2023-04-01T08:03:29;16.30;63.00
22469;DHT22;11401;50.792;4.352;2023-04-01T08:09:06;16.00;63.70
22469;DHT22;11401;50.792;4.352;2023-04-01T08:25:52;16.30;65.80
22469;DHT22;11401;50.792;4.352;2023-04-01T08:28:46;16.50;65.50
22469;DHT22;11401;50.792;4.352;2023-04-01T08:34:16;16.50;65.30
22469;DHT22;11401;50.792;4.352;2023-04-01T08:36:52;16.90;65.20
22469;DHT22;11401;50.792;4.352;2023-04-01T08:39:31;17.10;63.40
22469;DHT22;11401;50.792;4.352;2023-04-01T08:42:35;17.20;63.70
22469;DHT22;11401;50.792;4.352;2023-04-01T08:56:18;17.50;59.60
22469;DHT22;11401;50.792;4.352;2023-04-01T08:59:01;17.50;60.30
22469;DHT22;11401;50.792;4.352;2023-04-01T09:07:51;16.90;60.70
22469;DHT22;11401;50.792;4.352;2023-04-01T09:13:47;16.80;62.00
22469;DHT22;11401;50.792;4.352;2023-04-01T09:22:09;16.90;62.40
22469;DHT22;11401;50.792;4.352;2023-04-01T09:27:27;16.80;62.60
22469;DHT22;11401;50.792;4.352;2023-04-01T09:35:47;16.80;62.40
22469;DHT22;11401;50.792;4.352;2023-04-01T09:45:00;16.80;62.90
22469;DHT22;11401;50.792;4.352;2023-04-01T10:01:52;17.10;65.50
22469;DHT22;11401;50.792;4.352;2023-04-01T10:13:17;18.00;63.70
22469;DHT22;11401;50.792;4.352;2023-04-01T10:38:45;18.90;61.20
22469;DHT22;11401;50.792;4.352;2023-04-01T10:48:17;18.40;59.70
22469;DHT22;11401;50.792;4.352;2023-04-01T10:53:38;18.00;60.20
22469;DHT22;11401;50.792;4.352;2023-04-01T11:06:57;17.50;61.30
22469;DHT22;11401;50.792;4.352;2023-04-01T11:20:45;17.50;61.90
22469;DHT22;11401;50.792;4.352;2023-04-01T11:23:37;17.40;62.10
22469;DHT22;11401;50.792;4.352;2023-04-01T11:29:36;17.70;62.40
22469;DHT22;11401;50.792;4.352;2023-04-01T11:49:23;17.70;61.80
22469;DHT22;11401;50.792;4.352;2023-04-01T12:00:43;17.60;61.90
22469;DHT22;11401;50.792;4.352;2023-04-01T12:06:22;17.70;62.10
22469;DHT22;11401;50.792;4.352;2023-04-01T12:08:51;17.70;62.70
22469;DHT22;11401;50.792;4.352;2023-04-01T12:19:56;18.00;62.90
22469;DHT22;11401;50.792;4.352;2023-04-01T12:22:42;18.00;62.50
22469;DHT22;11401;50.792;4.352;2023-04-01T12:25:24;17.90;62.30
22469;DHT22;11401;50.792;4.352;2023-04-01T12:27:57;17.90;62.90
22469;DHT22;11401;50.792;4.352;2023-04-01T12:33:28;18.00;61.60
22469;DHT22;11401;50.792;4.352;2023-04-01T12:53:02;17.90;60.70
22469;DHT22;11401;50.792;4.352;2023-04-01T12:55:41;17.70;59.70
22469;DHT22;11401;50.792;4.352;2023-04-01T12:58:48;17.40;60.70
22469;DHT22;11401;50.792;4.352;2023-04-01T13:15:18;17.50;62.70
22469;DHT22;11401;50.792;4.352;2023-04-01T13:32:27;17.70;60.60
22469;DHT22;11401;50.792;4.352;2023-04-01T13:54:49;17.80;62.20
22469;DHT22;11401;50.792;4.352;2023-04-01T14:15:05;17.50;62.10
22469;DHT22;11401;50.792;4.352;2023-04-01T14:20:24;17.40;62.60
22469;DHT22;11401;50.792;4.352;2023-04-01T14:23:13;17.50;62.90
22469;DHT22;11401;50.792;4.352;2023-04-01T14:26:11;17.50;61.80
22469;DHT22;11401;50.792;4.352;2023-04-01T14:37:15;17.50;61.90
22469;DHT22;11401;50.792;4.352;2023-04-01T14:39:54;17.40;61.70
22469;DHT22;11401;50.792;4.352;2023-04-01T14:50:55;17.00;61.50
22469;DHT22;11401;50.792;4.352;2023-04-01T14:53:33;16.90;62.80
22469;DHT22;11401;50.792;4.352;2023-04-01T14:56:02;16.90;63.30
22469;DHT22;11401;50.792;4.352;2023-04-01T14:58:59;16.90;63.20
22469;DHT22;11401;50.792;4.352;2023-04-01T15:01:41;17.10;63.00
22469;DHT22;11401;50.792;4.352;2023-04-01T15:15:41;17.10;62.90
22469;DHT22;11401;50.792;4.352;2023-04-01T15:18:17;17.10;63.00
22469;DHT22;11401;50.792;4.352;2023-04-01T15:35:30;17.40;62.50
22469;DHT22;11401;50.792;4.352;2023-04-01T15:54:36;17.50;62.00
22469;DHT22;11401;50.792;4.352;2023-04-01T16:06:06;17.40;62.10
22469;DHT22;11401;50.792;4.352;2023-04-01T16:12:04;17.20;62.50
22469;DHT22;11401;50.792;4.352;2023-04-01T16:19:52;16.90;62.60
22469;DHT22;11401;50.792;4.352;2023-04-01T16:33:32;16.90;62.80
22469;DHT22;11401;50.792;4.352;2023-04-01T16:36:22;17.00;62.70
22469;DHT22;11401;50.792;4.352;2023-04-01T16:42:09;16.90;63.40
22469;DHT22;11401;50.792;4.352;2023-04-01T16:45:00;16.90;62.80
22469;DHT22;11401;50.792;4.352;2023-04-01T16:47:36;16.90;63.00
22469;DHT22;11401;50.792;4.352;2023-04-01T16:50:20;16.90;62.90
22469;DHT22;11401;50.792;4.352;2023-04-01T16:55:54;17.00;62.60
22469;DHT22;11401;50.792;4.352;2023-04-01T16:58:36;17.00;62.30
22469;DHT22;11401;50.792;4.352;2023-04-01T17:01:20;16.90;61.90
22469;DHT22;11401;50.792;4.352;2023-04-01T17:04:17;17.00;62.70
22469;DHT22;11401;50.792;4.352;2023-04-01T17:06:47;17.00;61.80
22469;DHT22;11401;50.792;4.352;2023-04-01T17:15:32;16.90;62.70
22469;DHT22;11401;50.792;4.352;2023-04-01T17:18:35;16.80;62.90
22469;DHT22;11401;50.792;4.352;2023-04-01T17:21:05;16.80;62.60
22469;DHT22;11401;50.792;4.352;2023-04-01T17:29:22;16.50;63.30
22469;DHT22;11401;50.792;4.352;2023-04-01T17:32:13;16.50;63.60
22469;DHT22;11401;50.792;4.352;2023-04-01T17:57:54;16.60;63.40
22469;DHT22;11401;50.792;4.352;2023-04-01T18:06:34;16.60;63.80
22469;DHT22;11401;50.792;4.352;2023-04-01T18:09:13;16.60;63.40
22469;DHT22;11401;50.792;4.352;2023-04-01T18:17:15;16.60;63.60
22469;DHT22;11401;50.792;4.352;2023-04-01T18:20:24;16.60;63.90
22469;DHT22;11401;50.792;4.352;2023-04-01T18:23:00;16.60;63.80
22469;DHT22;11401;50.792;4.352;2023-04-01T18:25:38;16.60;63.70
22469;DHT22;11401;50.792;4.352;2023-04-01T18:39:22;16.50;64.20
22469;DHT22;11401;50.792;4.352;2023-04-01T18:44:48;16.60;63.70
22469;DHT22;11401;50.792;4.352;2023-04-01T18:47:43;16.50;63.10
22469;DHT22;11401;50.792;4.352;2023-04-01T18:51:10;16.50;63.50
22469;DHT22;11401;50.792;4.352;2023-04-01T18:56:32;16.60;63.80
22469;DHT22;11401;50.792;4.352;2023-04-01T18:59:10;16.50;63.70
22469;DHT22;11401;50.792;4.352;2023-04-01T19:02:21;16.50;63.30
22469;DHT22;11401;50.792;4.352;2023-04-01T19:04:56;16.50;64.10
22469;DHT22;11401;50.792;4.352;2023-04-01T19:15:39;16.50;63.60
22469;DHT22;11401;50.792;4.352;2023-04-01T19:21:10;16.50;63.10
22469;DHT22;11401;50.792;4.352;2023-04-01T19:26:42;16.50;63.40
22469;DHT22;11401;50.792;4.352;2023-04-01T19:31:53;16.40;63.60
22469;DHT22;11401;50.792;4.352;2023-04-01T19:45:43;16.30;64.10
22469;DHT22;11401;50.792;4.352;2023-04-01T19:57:47;16.40;62.00
22469;DHT22;11401;50.792;4.352;2023-04-01T20:00:30;16.50;64.30
22469;DHT22;11401;50.792;4.352;2023-04-01T20:05:55;16.40;62.90
22469;DHT22;11401;50.792;4.352;2023-04-01T20:27:55;16.00;64.70
22469;DHT22;11401;50.792;4.352;2023-04-01T20:38:56;16.00;64.60
22469;DHT22;11401;50.792;4.352;2023-04-01T20:44:49;16.00;63.90
22469;DHT22;11401;50.792;4.352;2023-04-01T20:52:37;15.90;64.90
22469;DHT22;11401;50.792;4.352;2023-04-01T20:55:21;16.00;65.20
22469;DHT22;11401;50.792;4.352;2023-04-01T21:04:10;16.20;64.90
22469;DHT22;11401;50.792;4.352;2023-04-01T21:12:28;16.40;64.50
22469;DHT22;11401;50.792;4.352;2023-04-01T21:15:42;16.30;64.20
22469;DHT22;11401;50.792;4.352;2023-04-01T21:29:43;16.20;65.00
22469;DHT22;11401;50.792;4.352;2023-04-01T21:35:21;16.20;64.60
22469;DHT22;11401;50.792;4.352;2023-04-01T21:54:58;16.40;64.80
22469;DHT22;11401;50.792;4.352;2023-04-01T21:57:48;16.40;64.40
22469;DHT22;11401;50.792;4.352;2023-04-01T22:00:32;16.40;64.40
22469;DHT22;11401;50.792;4.352;2023-04-01T22:03:22;16.50;64.20
22469;DHT22;11401;50.792;4.352;2023-04-01T22:06:03;16.40;64.50
22469;DHT22;11401;50.792;4.352;2023-04-01T22:17:00;16.50;64.30
22469;DHT22;11401;50.792;4.352;2023-04-01T22:19:47;16.50;64.20
22469;DHT22;11401;50.792;4.352;2023-04-01T22:22:47;16.50;64.30
22469;DHT22;11401;50.792;4.352;2023-04-01T22:25:25;16.40;64.70
22469;DHT22;11401;50.792;4.352;2023-04-01T22:28:07;16.50;64.10
22469;DHT22;11401;50.792;4.352;2023-04-01T22:41:17;16.50;64.50
22469;DHT22;11401;50.792;4.352;2023-04-01T22:43:50;16.50;64.80
22469;DHT22;11401;50.792;4.352;2023-04-01T22:46:33;16.30;64.00
22469;DHT22;11401;50.792;4.352;2023-04-01T22:51:51;15.90;66.00
22469;DHT22;11401;50.792;4.352;2023-04-01T22:54:37;15.90;66.20
22469;DHT22;11401;50.792;4.352;2023-04-01T22:57:42;16.00;66.70
22469;DHT22;11401;50.792;4.352;2023-04-01T23:00:21;16.10;65.50
22469;DHT22;11401;50.792;4.352;2023-04-01T23:05:28;16.10;65.40
22469;DHT22;11401;50.792;4.352;2023-04-01T23:08:07;16.10;65.10
22469;DHT22;11401;50.792;4.352;2023-04-01T23:10:58;16.20;65.40
22469;DHT22;11401;50.792;4.352;2023-04-01T23:16:45;16.20;64.60
22469;DHT22;11401;50.792;4.352;2023-04-01T23:19:19;16.20;65.30
22469;DHT22;11401;50.792;4.352;2023-04-01T23:22:04;16.20;65.20
22469;DHT22;11401;50.792;4.352;2023-04-01T23:24:44;16.20;65.30
22469;DHT22;11401;50.792;4.352;2023-04-01T23:29:46;16.10;65.70
22469;DHT22;11401;50.792;4.352;2023-04-01T23:32:24;16.10;65.70
22469;DHT22;11401;50.792;4.352;2023-04-01T23:34:59;16.00;65.10
22469;DHT22;11401;50.792;4.352;2023-04-01T23:37:27;16.10;65.10
22469;DHT22;11401;50.792;4.352;2023-04-01T23:39:57;16.10;65.10
22469;DHT22;11401;50.792;4.352;2023-04-01T23:42:28;16.20;65.30
22469;DHT22;11401;50.792;4.352;2023-04-01T23:45:02;16.20;65.30
22469;DHT22;11401;50.792;4.352;2023-04-01T23:47:35;16.20;64.60
22469;DHT22;11401;50.792;4.352;2023-04-01T23:50:14;16.20;65.10
22469;DHT22;11401;50.792;4.352;2023-04-01T23:53:04;16.20;65.40
22469;DHT22;11401;50.792;4.352;2023-04-01T23:55:35;16.10;64.20
